Wilmer, AL (36587)

7:20 PM CDT on July 29, 2015 (GMT -0500)
APRSWXNET | | Change Station
CLOSE
Current Station
Personal Weather Station
Location: Wilmer, AL
Elevation: 183 ft
Nearby Weather Stations

Elev 183 ft 30.75 °N, 88.40 °W | Updated 24 minutes ago

Mostly Cloudy
Mostly Cloudy
82 °F
Feels Like 92 °F
N
0
Wind Variable Wind from ESE
Gusts 1.0 mph

Today
High -- | Low -- °F
--% Chance of Precip.
Yesterday
High -- | Low -- °F
Precip. -- in
6:08 AM 7:50 PM
Waxing Gibbous, 97% visible
Pressure 29.99 in
Visibility 10.0 miles
Clouds Few 2500 ft
Few 8500 ft
Overcast 11000 ft
Heat Index 92 °F
Dew Point 79 °F
Humidity 91%
Rainfall in
Snow Depth Not available.
UV 0 out of 12
Pollen 3.20 out of 12
Air Quality Not available.
Flu Activity Not available.
METAR KMOB 292356Z 07004KT 10SM FEW025 FEW085 OVC110 28/24 A3000 RMK AO2 LTG DSNT W SLP154 60057 T02830239 10356 20239 53006

More Conditions Fewer Conditions

Pressure 29.99 in
Visibility 10.0 miles
Clouds Few 2500 ft
Few 8500 ft
Overcast 11000 ft
Heat Index 92 °F
Dew Point 79 °F
Humidity 91%
Rainfall in
Snow Depth Not available.
UV 0 out of 12
Pollen 3.20 out of 12
Air Quality Not available.
Flu Activity Not available.
METAR KMOB 292356Z 07004KT 10SM FEW025 FEW085 OVC110 28/24 A3000 RMK AO2 LTG DSNT W SLP154 60057 T02830239 10356 20239 53006

More Conditions Fewer Conditions

10-Day Weather Forecast

×

Almanac

Astronomy

Jul. 29, 2015 Rise Set
Actual Time
Civil Twilight
Nautical Twilight
Astronomical Twilight
Moon
Length of Visible Light
Length of Day
Tomorrow will be .
, % of the Moon is Illuminated

Today's Extremes

State Highs State Lows

Community

WunderPhotos

Upload Photos

1,842,221 photos uploaded!

WunderBlogs® & News

Nearby

Air Quality

  Air Quality AQ Index Pollutant
Not available.

Snow Depth

Station Depth Elevation

Earthquake Activity

City Distance Mag. Time & Date
Minimum magnitude displayed is 2.5.

Coastal Water Temperatures

Place Temperature

Stations

Nearby Weather Stations

Station Location Temp. Windchill Dew Point Humidity Wind Precip. Elev Updated Type